Flight Track Log - Related Links

Times and Time Zones

All times are in EDT time to prevent confusion due to time zone crossing. See the N1933M flight status page for this flight to view local times or setup timezone preferences in your user account.

Time Position Orientation Groundspeed Altitude Reporting Facility
EDT Latitude Longitude Course Direction KTS MPH feet Rate Location/Type
Fri 04:40:17 PM 38.3167 -77.4167 201° Southwest 97 112 3,000  Level Potomac TRACON
Fri 04:41:18 PM 38.3000 -77.4167 180° South 95 109 3,800 397 Climbing Potomac TRACON
Fri 04:42:18 PM 38.2667 -77.4167 180° South 122 140 3,800  Level Potomac TRACON
Fri 04:43:24 PM 38.2333 -77.4167 180° South 132 152 3,800  Level Potomac TRACON
Fri 04:44:19 PM 38.2000 -77.4167 180° South 127 146 3,800  Level Potomac TRACON
Fri 04:45:19 PM 38.1667 -77.4333 201° Southwest 125 144 3,800  Level Potomac TRACON
Fri 04:46:20 PM 38.1333 -77.4333 180° South 122 140 3,800  Level Potomac TRACON
Fri 04:47:20 PM 38.1000 -77.4333 180° South 121 139 3,800  Level Potomac TRACON
Fri 04:48:20 PM 38.0667 -77.4333 180° South 120 138 3,800  Level Potomac TRACON
Fri 04:49:20 PM 38.0333 -77.4500 201° Southwest 123 142 3,800  Level Potomac TRACON
Fri 04:50:26 PM 37.9833 -77.4500 180° South 123 142 3,800  Level Potomac TRACON
Fri 04:51:26 PM 37.9500 -77.4500 180° South 119 137 3,800  Level Potomac TRACON
Fri 04:52:27 PM 37.9167 -77.4500 180° South 119 137 3,800  Level Potomac TRACON
Fri 04:53:27 PM 37.8833 -77.4667 202° Southwest 130 150 3,800  Level Potomac TRACON
Fri 04:54:27 PM 37.8500 -77.4667 180° South 128 147 3,800  Level Potomac TRACON
Fri 04:55:27 PM 37.8167 -77.4667 180° South 120 138 3,800  Level Potomac TRACON
Fri 04:56:27 PM 37.7833 -77.4833 202° Southwest 129 148 3,800 -95 Level Potomac TRACON
Fri 04:57:33 PM 37.7500 -77.4833 180° South 118 136 3,600 -425 Descending Potomac TRACON
Fri 04:58:34 PM 37.7167 -77.4833 180° South 128 147 2,900 -476 Descending Potomac TRACON
Fri 04:59:39 PM 37.6833 -77.4833 180° South 136 157 2,600 -200 Descending Potomac TRACON
Fri 05:00:34 PM 37.6500 -77.5000 202° Southwest 134 154 2,500 -109 Descending Potomac TRACON

Login

Don't have an account? Register now (free) for customized features, flight alerts, and more!